createdAt,value
2018-03-29T00:01:31.866Z,13.63
2018-03-29T00:04:01.247Z,13.74
2018-03-29T00:06:30.562Z,13.68
2018-03-29T00:09:00.042Z,13.36
2018-03-29T00:11:31.012Z,13.43
2018-03-29T00:14:02.663Z,13.49
2018-03-29T00:16:34.113Z,13.88
2018-03-29T00:19:04.641Z,13.55
2018-03-29T00:21:34.705Z,13.18
2018-03-29T00:24:06.830Z,13.14
2018-03-29T00:26:36.821Z,13.21
2018-03-29T00:29:07.150Z,12.82
2018-03-29T00:31:38.382Z,13.28
2018-03-29T00:34:11.326Z,13.39
2018-03-29T00:36:45.006Z,13.48
2018-03-29T00:39:21.426Z,13.77
2018-03-29T00:41:53.884Z,13.64
2018-03-29T00:44:23.935Z,13.57
2018-03-29T00:47:00.208Z,13.24
2018-03-29T00:49:37.868Z,13.05
2018-03-29T00:52:09.757Z,13.16
2018-03-29T00:54:45.538Z,13.15
2018-03-29T00:57:16.826Z,13.18
2018-03-29T00:59:52.227Z,13.21
2018-03-29T01:02:23.712Z,13.21
2018-03-29T01:04:55.493Z,13.21
2018-03-29T01:07:26.752Z,13.00
2018-03-29T01:09:59.021Z,13.20
2018-03-29T01:12:33.782Z,13.39
2018-03-29T01:15:04.736Z,13.66
2018-03-29T01:17:34.887Z,13.81
2018-03-29T01:20:05.139Z,13.56
2018-03-29T01:22:41.755Z,13.40
2018-03-29T01:25:12.007Z,13.26
2018-03-29T01:27:44.837Z,13.13
2018-03-29T01:30:15.714Z,12.86
2018-03-29T01:32:46.465Z,13.12
2018-03-29T01:35:23.239Z,13.14
2018-03-29T01:37:54.420Z,12.98
2018-03-29T01:40:26.804Z,13.02
2018-03-29T01:42:57.963Z,13.01
2018-03-29T01:45:29.057Z,12.65
2018-03-29T01:47:59.540Z,12.66
2018-03-29T01:50:30.883Z,12.54
2018-03-29T01:53:04.617Z,12.75
2018-03-29T01:55:35.801Z,12.86
2018-03-29T01:58:07.889Z,12.86
2018-03-29T02:00:39.238Z,12.64
2018-03-29T02:03:09.442Z,12.51
2018-03-29T02:05:42.605Z,12.27
2018-03-29T02:08:14.215Z,12.23
2018-03-29T02:10:46.869Z,12.32
2018-03-29T02:13:19.964Z,12.17
2018-03-29T02:15:50.814Z,12.05
2018-03-29T02:18:21.734Z,12.11
2018-03-29T02:20:54.508Z,12.18
2018-03-29T02:23:26.095Z,12.16
2018-03-29T02:25:55.694Z,12.55
2018-03-29T02:28:31.757Z,12.64
2018-03-29T02:31:08.375Z,12.63
2018-03-29T02:33:38.661Z,13.03
2018-03-29T02:36:13.590Z,13.01
2018-03-29T02:38:43.821Z,13.33
2018-03-29T02:41:13.955Z,13.05
2018-03-29T02:43:45.187Z,12.90
2018-03-29T02:46:16.972Z,12.74
2018-03-29T02:48:46.904Z,12.69
2018-03-29T02:51:16.636Z,12.86
2018-03-29T02:53:47.652Z,12.52
2018-03-29T02:56:18.761Z,12.96
2018-03-29T02:58:51.204Z,13.18
2018-03-29T03:01:24.075Z,13.56
2018-03-29T03:03:54.524Z,13.13
2018-03-29T03:06:24.529Z,12.89
2018-03-29T03:08:57.613Z,12.95
2018-03-29T03:11:27.600Z,12.98
2018-03-29T03:13:58.779Z,13.01
2018-03-29T03:16:29.440Z,12.98
2018-03-29T03:19:00.351Z,12.54
2018-03-29T03:21:30.396Z,12.79
2018-03-29T03:24:03.371Z,12.75
2018-03-29T03:26:35.275Z,12.99
2018-03-29T03:29:06.770Z,13.30
2018-03-29T03:31:38.591Z,13.04
2018-03-29T03:34:08.765Z,13.04
2018-03-29T03:36:39.882Z,12.99
2018-03-29T03:39:10.780Z,12.62
2018-03-29T03:41:42.284Z,12.87
2018-03-29T03:44:14.196Z,13.05
2018-03-29T03:46:46.834Z,13.02
2018-03-29T03:49:17.896Z,12.79
2018-03-29T03:51:50.658Z,12.28
2018-03-29T03:54:21.743Z,11.94
2018-03-29T03:56:51.887Z,11.54
2018-03-29T03:59:23.010Z,11.68
2018-03-29T04:01:55.129Z,11.38
2018-03-29T04:04:26.243Z,11.58
2018-03-29T04:06:58.840Z,11.89
2018-03-29T04:09:43.698Z,12.11
2018-03-29T04:12:17.563Z,12.34
2018-03-29T04:14:49.962Z,12.53
2018-03-29T04:17:20.504Z,12.45
2018-03-29T04:19:53.314Z,12.17
2018-03-29T04:22:23.832Z,12.12
2018-03-29T04:24:54.836Z,12.24
2018-03-29T04:27:26.778Z,12.70
2018-03-29T04:29:58.214Z,12.89
2018-03-29T04:32:28.627Z,12.75
2018-03-29T04:35:00.405Z,12.87
2018-03-29T04:37:30.684Z,12.56
2018-03-29T04:40:03.209Z,12.31
2018-03-29T04:42:34.018Z,11.88
2018-03-29T04:45:03.962Z,11.99
2018-03-29T04:47:34.404Z,12.24
2018-03-29T04:50:05.366Z,12.02
2018-03-29T04:52:38.343Z,12.15
2018-03-29T04:55:12.562Z,11.88
2018-03-29T04:57:47.297Z,11.63
2018-03-29T05:00:17.448Z,11.92
2018-03-29T05:02:46.776Z,12.36
2018-03-29T05:05:16.124Z,12.21
2018-03-29T05:07:45.791Z,12.11
2018-03-29T05:10:15.115Z,12.01
2018-03-29T05:12:47.007Z,12.35
2018-03-29T05:15:18.512Z,12.53
2018-03-29T05:17:55.555Z,12.58
2018-03-29T05:20:31.315Z,12.61
2018-03-29T05:23:02.855Z,12.37
2018-03-29T05:25:36.169Z,12.42
2018-03-29T05:28:09.900Z,12.73
2018-03-29T05:30:40.781Z,12.44
2018-03-29T05:33:11.872Z,12.20
2018-03-29T05:35:43.167Z,12.43
2018-03-29T05:38:13.163Z,12.48
2018-03-29T05:40:43.247Z,12.87
2018-03-29T05:43:15.070Z,13.10
2018-03-29T05:46:07.312Z,13.38
